createdAt,value
2022-10-21T00:00:54.234Z,100.00
2022-10-21T00:03:36.608Z,100.00
2022-10-21T00:06:05.143Z,100.00
2022-10-21T00:08:32.790Z,100.00
2022-10-21T00:11:01.764Z,100.00
2022-10-21T00:13:31.001Z,100.00
2022-10-21T00:16:08.931Z,100.00
2022-10-21T00:18:37.692Z,100.00
2022-10-21T00:21:10.918Z,100.00
2022-10-21T00:23:38.304Z,100.00
2022-10-21T00:26:06.540Z,100.00
2022-10-21T00:28:33.858Z,100.00
2022-10-21T00:31:01.579Z,100.00
2022-10-21T00:33:29.454Z,100.00
2022-10-21T00:35:59.075Z,100.00
2022-10-21T00:38:26.453Z,100.00
2022-10-21T00:40:53.963Z,100.00
2022-10-21T00:43:21.585Z,100.00
2022-10-21T00:45:51.189Z,100.00
2022-10-21T00:48:30.313Z,100.00
2022-10-21T00:51:01.679Z,100.00
2022-10-21T00:53:29.333Z,100.00
2022-10-21T00:56:00.633Z,100.00
2022-10-21T00:58:30.629Z,100.00
2022-10-21T01:01:00.981Z,100.00
2022-10-21T01:03:29.867Z,100.00
2022-10-21T01:05:59.911Z,100.00
2022-10-21T01:08:28.224Z,100.00
2022-10-21T01:10:56.220Z,100.00
2022-10-21T01:13:40.210Z,100.00
2022-10-21T01:16:34.757Z,100.00
2022-10-21T01:19:20.814Z,100.00
2022-10-21T01:21:54.395Z,100.00
2022-10-21T01:25:06.559Z,100.00
2022-10-21T01:27:38.842Z,100.00
2022-10-21T01:30:31.150Z,100.00
2022-10-21T01:33:27.958Z,100.00
2022-10-21T01:36:01.527Z,100.00
2022-10-21T01:38:48.199Z,100.00
2022-10-21T01:41:33.860Z,100.00
2022-10-21T01:44:07.718Z,100.00
2022-10-21T01:46:42.231Z,100.00
2022-10-21T01:49:34.116Z,100.00
2022-10-21T01:52:02.583Z,100.00
2022-10-21T01:54:36.002Z,100.00
2022-10-21T01:57:05.005Z,100.00
2022-10-21T01:59:33.159Z,100.00
2022-10-21T02:02:02.334Z,100.00
2022-10-21T02:04:31.174Z,100.00
2022-10-21T02:06:58.407Z,100.00
2022-10-21T02:09:26.183Z,100.00
2022-10-21T02:11:58.069Z,100.00
2022-10-21T02:14:46.721Z,100.00
2022-10-21T02:17:17.301Z,100.00
2022-10-21T02:19:46.561Z,100.00
2022-10-21T02:22:17.912Z,100.00
2022-10-21T02:25:17.279Z,100.00
2022-10-21T02:27:44.964Z,100.00
2022-10-21T02:30:12.615Z,100.00
2022-10-21T02:32:45.940Z,100.00
2022-10-21T02:35:32.320Z,100.00
2022-10-21T02:38:09.799Z,100.00
2022-10-21T02:40:40.731Z,100.00
2022-10-21T02:43:14.014Z,100.00
2022-10-21T02:45:42.150Z,100.00
2022-10-21T02:48:09.355Z,100.00
2022-10-21T02:50:37.096Z,100.00
2022-10-21T02:53:04.445Z,100.00
2022-10-21T02:55:31.944Z,100.00
2022-10-21T02:57:59.182Z,100.00
2022-10-21T03:00:30.731Z,100.00
2022-10-21T03:03:00.385Z,100.00
2022-10-21T03:05:27.999Z,100.00
2022-10-21T03:07:55.371Z,100.00
2022-10-21T03:10:23.060Z,100.00
2022-10-21T03:12:50.462Z,100.00
2022-10-21T03:15:18.041Z,100.00
2022-10-21T03:17:45.344Z,100.00
2022-10-21T03:20:12.901Z,100.00
2022-10-21T03:22:40.125Z,100.00
2022-10-21T03:25:08.781Z,100.00
2022-10-21T03:27:36.014Z,100.00
2022-10-21T03:30:06.652Z,100.00
2022-10-21T03:32:34.254Z,100.00
2022-10-21T03:35:02.081Z,100.00
2022-10-21T03:37:29.290Z,100.00
2022-10-21T03:39:56.874Z,100.00
2022-10-21T03:42:24.199Z,100.00
2022-10-21T03:44:51.684Z,100.00
2022-10-21T03:47:19.135Z,100.00
2022-10-21T03:49:46.971Z,100.00
2022-10-21T03:52:14.357Z,100.00
2022-10-21T03:54:41.874Z,100.00
2022-10-21T03:57:09.374Z,100.00
2022-10-21T03:59:36.909Z,100.00
2022-10-21T04:02:04.204Z,100.00
2022-10-21T04:04:31.900Z,100.00
2022-10-21T04:06:59.169Z,100.00
2022-10-21T04:09:26.804Z,100.00
2022-10-21T04:11:54.264Z,100.00
2022-10-21T04:14:21.944Z,100.00
2022-10-21T04:16:53.614Z,100.00
2022-10-21T04:19:29.743Z,100.00
2022-10-21T04:21:57.241Z,100.00
2022-10-21T04:24:24.899Z,100.00
2022-10-21T04:26:52.129Z,100.00
2022-10-21T04:29:19.699Z,100.00
2022-10-21T04:32:47.069Z,100.00
2022-10-21T04:35:15.063Z,100.00
2022-10-21T04:37:43.406Z,100.00
2022-10-21T04:40:11.433Z,100.00
2022-10-21T04:42:39.074Z,100.00
2022-10-21T04:45:07.266Z,100.00
2022-10-21T04:47:34.730Z,100.00
2022-10-21T04:50:02.332Z,100.00
2022-10-21T04:52:29.811Z,100.00
2022-10-21T04:54:57.394Z,100.00
2022-10-21T04:57:24.644Z,100.00
2022-10-21T04:59:52.210Z,100.00
2022-10-21T05:02:21.713Z,100.00
2022-10-21T05:04:52.086Z,100.00
2022-10-21T05:07:19.393Z,100.00
2022-10-21T05:09:46.944Z,100.00
2022-10-21T05:12:14.363Z,100.00
2022-10-21T05:14:41.955Z,100.00
2022-10-21T05:17:09.403Z,100.00
2022-10-21T05:19:37.092Z,100.00
2022-10-21T05:22:04.492Z,100.00
2022-10-21T05:24:31.965Z,100.00
2022-10-21T05:26:59.482Z,100.00
2022-10-21T05:29:27.185Z,100.00
2022-10-21T05:31:54.570Z,100.00
2022-10-21T05:34:22.411Z,100.00
2022-10-21T05:36:49.870Z,100.00
2022-10-21T05:39:17.453Z,100.00
2022-10-21T05:41:47.777Z,100.00
2022-10-21T05:44:16.408Z,100.00
2022-10-21T05:46:43.948Z,100.00
2022-10-21T05:49:11.563Z,100.00
2022-10-21T05:51:39.152Z,100.00
2022-10-21T05:54:06.799Z,100.00
2022-10-21T05:56:35.006Z,100.00
2022-10-21T05:59:05.438Z,100.00
2022-10-21T06:01:35.552Z,100.00
2022-10-21T06:04:03.924Z,100.00
2022-10-21T06:06:31.434Z,100.00
2022-10-21T06:08:59.218Z,100.00
2022-10-21T06:11:27.236Z,100.00
2022-10-21T06:13:56.508Z,100.00
2022-10-21T06:16:25.693Z,100.00
2022-10-21T06:18:53.137Z,100.00
2022-10-21T06:21:21.627Z,100.00
2022-10-21T06:23:53.699Z,100.00
2022-10-21T06:26:21.159Z,100.00
2022-10-21T06:28:48.615Z,100.00
2022-10-21T06:31:18.414Z,100.00
2022-10-21T06:33:45.947Z,100.00
2022-10-21T06:36:14.040Z,100.00
2022-10-21T06:38:42.485Z,100.00
2022-10-21T06:41:13.584Z,100.00
2022-10-21T06:43:44.484Z,100.00
2022-10-21T06:46:13.973Z,100.00
2022-10-21T06:48:42.199Z,100.00
2022-10-21T06:51:15.603Z,100.00
2022-10-21T06:53:44.161Z,100.00
2022-10-21T06:56:14.650Z,100.00
2022-10-21T06:58:49.224Z,100.00
2022-10-21T07:01:34.555Z,100.00
2022-10-21T07:04:10.330Z,100.00
2022-10-21T07:06:37.925Z,100.00
2022-10-21T07:09:07.004Z,100.00
2022-10-21T07:11:34.486Z,100.00
2022-10-21T07:14:02.280Z,100.00
2022-10-21T07:16:32.021Z,100.00
2022-10-21T07:19:00.045Z,100.00
2022-10-21T07:21:29.762Z,100.00
2022-10-21T07:23:59.276Z,100.00
2022-10-21T07:26:29.349Z,100.00
2022-10-21T07:28:58.686Z,100.00
2022-10-21T07:31:26.842Z,100.00
2022-10-21T07:33:54.581Z,100.00
2022-10-21T07:36:25.094Z,100.00
2022-10-21T07:38:54.292Z,100.00
2022-10-21T07:41:25.406Z,100.00
2022-10-21T07:43:53.823Z,100.00
2022-10-21T07:46:22.466Z,100.00
2022-10-21T07:48:50.516Z,100.00
2022-10-21T07:51:21.363Z,100.00
2022-10-21T07:53:50.772Z,100.00
2022-10-21T07:56:21.012Z,100.00
2022-10-21T07:58:49.002Z,100.00
2022-10-21T08:01:17.457Z,100.00
2022-10-21T08:03:46.491Z,100.00
2022-10-21T08:06:15.957Z,100.00
2022-10-21T08:08:43.986Z,100.00
2022-10-21T08:11:11.993Z,100.00
2022-10-21T08:13:41.606Z,100.00
2022-10-21T08:16:08.961Z,100.00
2022-10-21T08:18:36.654Z,100.00
2022-10-21T08:21:05.028Z,100.00
2022-10-21T08:23:32.623Z,100.00
2022-10-21T08:26:01.397Z,100.00
2022-10-21T08:28:30.573Z,100.00
2022-10-21T08:31:09.044Z,100.00
2022-10-21T08:33:37.198Z,100.00
2022-10-21T08:36:09.760Z,100.00
2022-10-21T08:38:37.541Z,100.00
2022-10-21T08:41:12.463Z,100.00
2022-10-21T08:43:40.151Z,100.00
2022-10-21T08:46:21.181Z,100.00
2022-10-21T08:48:56.120Z,100.00
2022-10-21T08:51:28.624Z,100.00
2022-10-21T08:53:58.546Z,100.00
2022-10-21T08:56:26.312Z,100.00
2022-10-21T08:58:53.818Z,100.00
2022-10-21T09:01:39.751Z,100.00
2022-10-21T09:04:24.394Z,100.00
2022-10-21T09:07:19.726Z,100.00
2022-10-21T09:09:53.709Z,100.00
2022-10-21T09:12:59.782Z,100.00
2022-10-21T09:15:45.749Z,100.00
2022-10-21T09:18:26.671Z,100.00
2022-10-21T09:21:08.871Z,100.00
2022-10-21T09:23:56.540Z,100.00
2022-10-21T09:26:56.831Z,100.00
2022-10-21T09:29:33.001Z,100.00
2022-10-21T09:35:38.649Z,100.00
2022-10-21T09:38:33.283Z,100.00
2022-10-21T09:41:03.592Z,100.00
2022-10-21T09:43:31.652Z,100.00
2022-10-21T09:45:59.510Z,100.00
2022-10-21T09:48:33.726Z,100.00
2022-10-21T09:51:11.310Z,100.00
2022-10-21T09:53:51.686Z,100.00
2022-10-21T09:56:25.029Z,100.00
2022-10-21T09:59:09.381Z,100.00
2022-10-21T10:01:39.312Z,100.00
2022-10-21T10:04:30.874Z,100.00
2022-10-21T10:07:01.386Z,100.00
2022-10-21T10:09:31.009Z,100.00
2022-10-21T10:12:03.819Z,100.00
2022-10-21T10:14:32.912Z,100.00
2022-10-21T10:17:33.900Z,100.00
2022-10-21T10:20:29.010Z,100.00
2022-10-21T10:22:58.437Z,100.00
2022-10-21T10:25:31.039Z,100.00
2022-10-21T10:39:51.719Z,96.71
2022-10-21T10:42:34.545Z,96.07
2022-10-21T10:45:13.148Z,97.67
2022-10-21T10:47:57.735Z,97.35
2022-10-21T10:50:45.425Z,95.37
2022-10-21T10:53:38.552Z,96.08
2022-10-21T10:56:05.933Z,95.93
2022-10-21T10:58:37.035Z,96.64
2022-10-21T11:01:10.789Z,97.55
2022-10-21T11:03:45.463Z,98.42
2022-10-21T11:06:16.835Z,97.68
2022-10-21T11:08:48.599Z,97.88
2022-10-21T11:11:26.229Z,99.37
2022-10-21T11:13:53.962Z,98.82
2022-10-21T11:16:44.925Z,98.08
2022-10-21T11:19:30.341Z,96.96
2022-10-21T11:22:28.691Z,97.47
2022-10-21T11:24:59.791Z,96.25
2022-10-21T11:27:45.690Z,95.23
2022-10-21T11:31:04.490Z,94.63
2022-10-21T11:33:47.591Z,95.03
2022-10-21T11:36:37.620Z,94.74
2022-10-21T11:39:42.343Z,91.66
2022-10-21T11:42:18.779Z,94.04
2022-10-21T11:45:01.253Z,92.31
2022-10-21T11:48:04.400Z,90.70
2022-10-21T11:50:38.345Z,92.04
2022-10-21T11:53:32.729Z,89.68
2022-10-21T11:56:22.799Z,89.70
2022-10-21T11:59:12.257Z,88.08
2022-10-21T12:01:56.656Z,89.28
2022-10-21T12:04:46.943Z,89.90
2022-10-21T12:07:32.841Z,88.73
2022-10-21T12:10:05.454Z,88.24
2022-10-21T12:12:36.309Z,89.76
2022-10-21T12:15:21.741Z,90.06
2022-10-21T12:17:49.799Z,91.19
2022-10-21T12:20:23.845Z,92.07
2022-10-21T12:22:57.675Z,92.66
2022-10-21T12:25:37.661Z,92.79
2022-10-21T12:28:12.015Z,93.34
2022-10-21T12:31:07.349Z,92.23
2022-10-21T12:33:43.908Z,94.14
2022-10-21T12:36:24.878Z,94.24
2022-10-21T12:38:54.527Z,94.15
2022-10-21T12:41:24.913Z,94.09
2022-10-21T12:43:54.283Z,93.68
2022-10-21T12:46:28.189Z,94.63
2022-10-21T12:48:55.745Z,94.59
2022-10-21T12:51:28.984Z,94.78
2022-10-21T12:54:02.333Z,94.92
2022-10-21T12:56:31.755Z,94.86
2022-10-21T12:59:03.216Z,95.40
2022-10-21T13:01:43.308Z,95.98
2022-10-21T13:04:32.096Z,95.56
2022-10-21T13:07:09.358Z,96.29
2022-10-21T13:09:40.770Z,96.88
2022-10-21T13:12:11.052Z,97.28
2022-10-21T13:14:49.560Z,97.95
2022-10-21T13:17:22.953Z,97.01
2022-10-21T13:19:54.238Z,96.94
2022-10-21T13:22:32.001Z,97.80
2022-10-21T13:25:22.888Z,97.93
2022-10-21T13:28:16.883Z,97.92
2022-10-21T13:30:50.376Z,98.72
2022-10-21T13:33:38.465Z,98.16
2022-10-21T13:36:13.525Z,98.60
2022-10-21T13:38:50.061Z,99.47
2022-10-21T13:41:27.451Z,98.66
2022-10-21T13:44:04.305Z,98.83
2022-10-21T13:46:39.122Z,97.17
2022-10-21T13:49:32.463Z,98.97
2022-10-21T13:52:00.008Z,100.00
2022-10-21T13:54:35.625Z,100.00
2022-10-21T13:57:07.747Z,100.00
2022-10-21T13:59:35.718Z,100.00
2022-10-21T14:02:04.208Z,100.00
2022-10-21T14:04:36.018Z,99.80
2022-10-21T14:07:09.477Z,100.00
2022-10-21T14:09:43.554Z,100.00
2022-10-21T14:12:28.471Z,100.00
2022-10-21T14:14:58.279Z,100.00
2022-10-21T14:17:27.481Z,100.00
2022-10-21T14:20:02.913Z,100.00
2022-10-21T14:22:32.890Z,100.00
2022-10-21T14:25:04.252Z,100.00
2022-10-21T14:27:34.578Z,100.00
2022-10-21T14:30:05.830Z,100.00
2022-10-21T14:32:34.110Z,100.00
2022-10-21T14:35:10.884Z,100.00
2022-10-21T14:37:55.065Z,100.00
2022-10-21T14:40:38.424Z,100.00
2022-10-21T14:43:17.819Z,100.00
2022-10-21T14:45:48.941Z,100.00
2022-10-21T14:48:30.680Z,100.00
2022-10-21T14:51:11.348Z,100.00
2022-10-21T14:53:59.766Z,100.00
2022-10-21T14:56:34.073Z,100.00
2022-10-21T14:59:07.594Z,100.00
2022-10-21T15:01:35.510Z,100.00
2022-10-21T15:04:03.464Z,100.00
2022-10-21T15:06:36.078Z,100.00
2022-10-21T15:09:18.202Z,100.00
2022-10-21T15:11:49.106Z,100.00
2022-10-21T15:14:28.997Z,100.00
2022-10-21T15:16:59.560Z,100.00
2022-10-21T15:19:48.388Z,100.00
2022-10-21T15:22:24.994Z,100.00
2022-10-21T15:24:53.095Z,100.00
2022-10-21T15:27:42.723Z,100.00
2022-10-21T15:30:13.521Z,100.00
2022-10-21T15:32:41.468Z,100.00
2022-10-21T15:35:21.341Z,100.00
2022-10-21T15:37:53.357Z,100.00
2022-10-21T15:40:22.109Z,100.00
2022-10-21T15:42:49.774Z,100.00
2022-10-21T15:45:20.030Z,100.00
2022-10-21T15:47:53.982Z,100.00
2022-10-21T15:50:27.013Z,100.00
2022-10-21T15:55:21.699Z,100.00
2022-10-21T15:57:49.270Z,100.00
2022-10-21T16:00:19.200Z,100.00
2022-10-21T16:02:47.564Z,100.00
2022-10-21T16:05:17.074Z,100.00
2022-10-21T16:07:45.151Z,100.00
2022-10-21T16:10:23.024Z,100.00
2022-10-21T16:12:51.256Z,100.00
2022-10-21T16:15:20.229Z,100.00
2022-10-21T16:17:51.060Z,100.00
2022-10-21T16:20:21.998Z,100.00
2022-10-21T16:22:49.955Z,100.00
2022-10-21T16:25:18.281Z,100.00
2022-10-21T16:28:01.683Z,100.00
2022-10-21T16:30:34.601Z,100.00
2022-10-21T16:33:02.721Z,100.00
2022-10-21T16:35:30.058Z,100.00
2022-10-21T16:37:58.359Z,100.00
2022-10-21T16:40:28.518Z,100.00
2022-10-21T16:42:56.146Z,100.00
2022-10-21T16:45:24.690Z,100.00
2022-10-21T16:47:56.369Z,100.00
2022-10-21T16:50:26.388Z,100.00
2022-10-21T16:52:54.282Z,100.00
2022-10-21T16:55:21.906Z,100.00
2022-10-21T16:57:49.800Z,100.00
2022-10-21T17:00:18.130Z,100.00
2022-10-21T17:02:48.471Z,100.00
2022-10-21T17:05:15.988Z,100.00
2022-10-21T17:07:43.721Z,100.00
2022-10-21T17:10:11.142Z,100.00
2022-10-21T17:12:38.827Z,100.00
2022-10-21T17:15:07.107Z,100.00
2022-10-21T17:17:36.777Z,100.00
2022-10-21T17:20:04.783Z,100.00
2022-10-21T17:22:32.561Z,100.00
2022-10-21T17:25:00.120Z,100.00
2022-10-21T17:27:27.758Z,100.00
2022-10-21T17:29:55.443Z,100.00
2022-10-21T17:32:24.983Z,100.00
2022-10-21T17:34:52.456Z,100.00
2022-10-21T17:37:20.669Z,100.00
2022-10-21T17:39:48.201Z,100.00
2022-10-21T17:42:20.644Z,100.00
2022-10-21T17:44:49.485Z,100.00
2022-10-21T17:47:17.549Z,100.00
2022-10-21T17:49:44.940Z,100.00
2022-10-21T17:52:12.558Z,100.00
2022-10-21T17:54:39.825Z,100.00
2022-10-21T17:57:07.754Z,100.00
2022-10-21T17:59:35.381Z,100.00
2022-10-21T18:02:03.154Z,100.00
2022-10-21T18:04:31.986Z,100.00
2022-10-21T18:06:59.628Z,100.00
2022-10-21T18:09:27.086Z,100.00
2022-10-21T18:11:54.883Z,100.00
2022-10-21T18:14:22.315Z,100.00
2022-10-21T18:16:49.952Z,100.00
2022-10-21T18:19:17.339Z,100.00
2022-10-21T18:21:45.160Z,100.00
2022-10-21T18:24:12.901Z,100.00
2022-10-21T18:26:41.264Z,100.00
2022-10-21T18:29:09.050Z,100.00
2022-10-21T18:31:37.664Z,100.00
2022-10-21T18:34:06.575Z,100.00
2022-10-21T18:36:34.703Z,100.00
2022-10-21T18:39:02.387Z,100.00
2022-10-21T18:41:30.660Z,100.00
2022-10-21T18:44:01.489Z,100.00
2022-10-21T18:46:30.077Z,100.00
2022-10-21T18:48:58.178Z,100.00
2022-10-21T18:51:26.023Z,100.00
2022-10-21T18:53:53.907Z,100.00
2022-10-21T18:56:24.482Z,100.00
2022-10-21T18:58:52.726Z,100.00
2022-10-21T19:01:21.675Z,100.00
2022-10-21T19:03:53.991Z,100.00
2022-10-21T19:06:40.214Z,100.00
2022-10-21T19:09:13.455Z,100.00
2022-10-21T19:11:42.272Z,100.00
2022-10-21T19:14:13.029Z,100.00
2022-10-21T19:16:43.112Z,100.00
2022-10-21T19:19:11.142Z,100.00
2022-10-21T19:21:39.174Z,100.00
2022-10-21T19:24:07.267Z,100.00
2022-10-21T19:26:37.093Z,100.00
2022-10-21T19:29:13.499Z,100.00
2022-10-21T19:31:42.404Z,100.00
2022-10-21T19:34:16.625Z,100.00
2022-10-21T19:36:44.669Z,100.00
2022-10-21T19:39:12.254Z,100.00
2022-10-21T19:41:40.402Z,100.00
2022-10-21T19:44:08.885Z,100.00
2022-10-21T19:46:37.498Z,100.00
2022-10-21T19:49:08.090Z,100.00
2022-10-21T19:51:36.141Z,100.00
2022-10-21T19:54:05.284Z,100.00
2022-10-21T19:56:35.448Z,100.00
2022-10-21T19:59:05.405Z,100.00
2022-10-21T20:01:34.502Z,100.00
2022-10-21T20:04:02.886Z,100.00
2022-10-21T20:06:33.507Z,100.00
2022-10-21T20:09:07.778Z,100.00
2022-10-21T20:11:36.370Z,100.00
2022-10-21T20:14:04.774Z,100.00
2022-10-21T20:16:38.582Z,100.00
2022-10-21T20:19:07.179Z,100.00
2022-10-21T20:21:36.350Z,100.00
2022-10-21T20:24:04.485Z,100.00
2022-10-21T20:26:32.665Z,100.00
2022-10-21T20:29:02.156Z,100.00
2022-10-21T20:31:30.415Z,100.00
2022-10-21T20:33:58.362Z,100.00
2022-10-21T20:36:29.326Z,100.00
2022-10-21T20:38:58.998Z,100.00
2022-10-21T20:41:34.350Z,100.00
2022-10-21T20:44:02.957Z,100.00
2022-10-21T20:46:36.314Z,100.00
2022-10-21T20:49:04.717Z,100.00
2022-10-21T20:51:32.896Z,100.00
2022-10-21T20:54:03.271Z,100.00
2022-10-21T20:56:36.393Z,100.00
2022-10-21T20:59:05.416Z,100.00
2022-10-21T21:01:35.526Z,100.00
2022-10-21T21:04:06.162Z,100.00
2022-10-21T21:06:39.242Z,100.00
2022-10-21T21:09:43.760Z,100.00
2022-10-21T21:11:55.090Z,100.00
2022-10-21T21:14:22.325Z,100.00
2022-10-21T21:16:50.119Z,100.00
2022-10-21T21:19:19.594Z,100.00
2022-10-21T21:21:47.145Z,100.00
2022-10-21T21:24:14.565Z,100.00
2022-10-21T21:26:42.382Z,100.00
2022-10-21T21:29:09.751Z,100.00
2022-10-21T21:31:38.637Z,100.00
2022-10-21T21:34:24.123Z,100.00
2022-10-21T21:37:07.040Z,100.00
2022-10-21T21:39:39.240Z,100.00
2022-10-21T21:42:19.557Z,100.00
2022-10-21T21:45:00.547Z,100.00
2022-10-21T21:47:41.096Z,100.00
2022-10-21T21:50:15.341Z,100.00
2022-10-21T21:52:48.817Z,100.00
2022-10-21T21:55:32.826Z,100.00
2022-10-21T21:58:17.176Z,100.00
2022-10-21T22:00:48.887Z,100.00
2022-10-21T22:07:25.772Z,100.00
2022-10-21T22:10:15.650Z,100.00
2022-10-21T22:12:59.078Z,100.00
2022-10-21T22:16:05.834Z,100.00
2022-10-21T22:18:47.036Z,100.00
2022-10-21T22:21:27.134Z,100.00
2022-10-21T22:24:07.447Z,100.00
2022-10-21T22:26:40.398Z,100.00
2022-10-21T22:32:14.058Z,100.00
2022-10-21T22:34:44.346Z,100.00
2022-10-21T22:37:20.759Z,100.00
2022-10-21T22:39:52.014Z,100.00
2022-10-21T22:42:25.322Z,100.00
2022-10-21T22:44:58.250Z,100.00
2022-10-21T22:47:28.200Z,100.00
2022-10-21T22:49:59.544Z,100.00
2022-10-21T22:52:30.067Z,100.00
2022-10-21T22:55:00.588Z,100.00
2022-10-21T22:57:29.170Z,100.00
2022-10-21T22:59:57.547Z,100.00
2022-10-21T23:02:27.633Z,100.00
2022-10-21T23:04:57.386Z,100.00
2022-10-21T23:07:36.227Z,100.00
2022-10-21T23:10:33.462Z,100.00
2022-10-21T23:13:04.579Z,100.00
2022-10-21T23:15:43.760Z,100.00
2022-10-21T23:18:15.160Z,100.00
2022-10-21T23:20:52.790Z,100.00
2022-10-21T23:23:27.553Z,100.00
2022-10-21T23:25:59.553Z,100.00
2022-10-21T23:28:27.259Z,100.00
2022-10-21T23:30:55.009Z,100.00
2022-10-21T23:33:23.399Z,100.00
2022-10-21T23:35:51.470Z,100.00
2022-10-21T23:38:19.123Z,100.00
2022-10-21T23:40:46.709Z,100.00
2022-10-21T23:43:14.045Z,100.00
2022-10-21T23:45:41.385Z,100.00
2022-10-21T23:48:08.733Z,100.00
2022-10-21T23:50:37.945Z,100.00
2022-10-21T23:53:08.394Z,100.00
2022-10-21T23:55:36.262Z,100.00
2022-10-21T23:58:03.764Z,100.00
